11MA weather

Public forecast

Using degrees Fahrenheit for public forecast. Weather courtesy of forecast.io.

Closest aviation weather report (METAR) to Bulljump Airport

Closest report is Plymouth Municipal Airport, 6.2 nm (11.6 km) NNE. Retrieved 2020/08/15 05:52 UTC (56 minutes ago):

KPYM 150552Z AUTO 01007KT 10SM CLR 19/18 A2997 RMK AO2 SLP147 T01940183 10211 20189 58012

Closest aviation forecast (TAF) to Bulljump Airport

Closest forecast is Cape Cod Coast Guard Air Station, 13.9 nm (25.7 km) SE. Retrieved 2020/08/15 06:42 UTC (6 minutes ago):

TAF KFMH 150540Z 1506/1606 03005KT P6SM SKC FM151200 03010G20KT P6SM BKN035 FM151500 02015G27KT P6SM OVC015 FM152200 03010G20KT P6SM OVC015 FM160000 04012KT P6SM OVC015